Thursday, May 24, 2018, 4:48 AM CDT
Back to Local

KVPZ, Valparaiso Porter Co Muni

Location: Valparaiso, IN, United States Lat: 41.45
Local Time: 4:48 AM CDT ( 9:48 GMT) Lon: -87
Time Zone: US/Central Elev: 770 ft

Show me the last for .
Show Decoded

2018-05-24 03:56 METAR KVPZ 240856Z AUTO 05003KT 9SM CLR 15/13 A3019 RMK AO2 SLP218 T01500133
                 55002 =
2018-05-24 02:56 METAR KVPZ 240756Z AUTO 07004KT 10SM CLR 16/13 A3018 RMK AO2 SLP215 T01560133 =
2018-05-24 01:56 METAR KVPZ 240656Z AUTO 06003KT 10SM CLR 16/13 A3018 RMK AO2 SLP217 T01610133 =
2018-05-24 00:56 METAR KVPZ 240556Z AUTO 05004KT 10SM CLR 16/13 A3019 RMK AO2 SLP220 T01610133
                 10250 20161 402720094 58001 =
2018-05-23 23:56 METAR KVPZ 240456Z AUTO 05003KT 10SM CLR 17/13 A3020 RMK AO2 SLP224 T01720128 =
2018-05-23 22:56 METAR KVPZ 240356Z AUTO 04003KT 10SM CLR 17/13 A3019 RMK AO2 SLP222 T01720128 =
2018-05-23 21:56 METAR KVPZ 240256Z AUTO 04004KT 10SM CLR 18/13 A3019 RMK AO2 SLP222 T01780133
                 53014 =
2018-05-23 20:56 METAR KVPZ 240156Z AUTO 04003KT 10SM CLR 20/14 A3018 RMK AO2 SLP217 T02000139 =
2018-05-23 19:56 METAR KVPZ 240056Z AUTO 01004KT 10SM CLR 22/14 A3016 RMK AO2 SLP210 T02220139 =
2018-05-23 18:56 METAR KVPZ 232356Z AUTO 36006KT 10SM CLR 25/14 A3015 RMK AO2 SLP207 T02500139
                 10272 20250 55007 =
2018-05-23 17:56 METAR KVPZ 232256Z AUTO 36005KT 10SM CLR 26/14 A3015 RMK AO2 SLP205 T02610144 =
2018-05-23 16:56 METAR KVPZ 232156Z AUTO 01006KT 10SM CLR 27/15 A3016 RMK AO2 SLP210 T02670150 =
2018-05-23 15:56 METAR KVPZ 232056Z AUTO 02005KT 10SM CLR 27/15 A3017 RMK AO2 SLP215 T02670150
                 58010 =
2018-05-23 14:56 METAR KVPZ 231956Z AUTO 04006KT 10SM CLR 27/16 A3019 RMK AO2 SLP220 T02670161 =
2018-05-23 13:56 METAR KVPZ 231856Z AUTO 01007KT 10SM CLR 27/13 A3020 RMK AO2 SLP224 T02670133 =
2018-05-23 12:56 METAR KVPZ 231756Z AUTO 00000KT 10SM CLR 26/12 A3020 RMK AO2 SLP226 T02560122
                 10256 20144 58003 =
2018-05-23 11:56 METAR KVPZ 231656Z AUTO 00000KT 10SM CLR 24/14 A3021 RMK AO2 SLP228 T02390139 =
2018-05-23 10:56 METAR KVPZ 231556Z AUTO VRB03KT 10SM CLR 23/15 A3021 RMK AO2 SLP229 T02280150 =
2018-05-23 09:56 METAR KVPZ 231456Z AUTO VRB03KT 10SM CLR 21/15 A3021 RMK AO2 SLP229 T02110150
                 51009 =
2018-05-23 08:56 METAR KVPZ 231356Z AUTO 05004KT 10SM CLR 19/14 A3021 RMK AO2 SLP229 T01940144 =
2018-05-23 07:56 METAR KVPZ 231256Z AUTO VRB03KT 9SM CLR 17/14 A3020 RMK AO2 SLP224 T01720139 =
2018-05-23 06:56 METAR KVPZ 231156Z AUTO 04003KT 4SM BR CLR 14/13 A3019 RMK AO2 SLP221 T01440128
                 10144 20094 51014 =
2018-05-23 06:52 METAR KVPZ 231152Z AUTO 05003KT 3SM BR CLR 14/13 A3019 RMK AO2 =
2018-05-23 06:34 METAR KVPZ 231134Z AUTO 05004KT 2SM BR CLR 13/12 A3018 RMK AO2 T01280122 =
2018-05-23 05:56 METAR KVPZ 231056Z AUTO 03003KT 1 1/2SM BR CLR 11/11 A3017 RMK AO2 SLP216
                 T01110111 =
2018-05-23 05:20 METAR KVPZ 231020Z AUTO 36003KT 1 3/4SM BR CLR 11/11 A3016 RMK AO2 T01110106 =
2018-05-23 05:07 METAR KVPZ 231007Z AUTO 03003KT 2 1/2SM BR CLR 11/10 A3015 RMK AO2 T01060100 =
2018-05-23 04:56 METAR KVPZ 230956Z AUTO 02004KT 3SM BR CLR 10/09 A3015 RMK AO2 SLP208 T01000094
                 =

Support USWX by starting your Amazon purchase here.